Yan An, China
Current Conditions -  °F | °C
As of 9:00 PM on Tuesday 21 Oct 2014 (Local Time) from ZLXY Reporting Station
Haze Haze  
Wind Chill: 57°   Ceiling: Unl
Heat Index: 57°   Visibility: 1.2mi
Dew Point: 55°   Wind: 7mph
Humidity: 94%   Direction: 40°NE
Pressure: 30.18"   Gusts: NA
Location:  36.6°N, 109.5°E
Report Text: ZLXY 211300Z 04003MPS 2000 BR NSC 14/13 Q1022 NOSIG
Loading
Personal Weather Stations






























Interactive Weather Map
Tropical Storm Tracking
New forecast layout! Learn more

10-Day Weather Forecast

Advertisements
Track Severe Weather on mobile